sensor_id;sensor_type;location;lat;lon;timestamp;pressure;altitude;pressure_sealevel;temperature;humidity
56074;BME280;41950;55.840;37.442;2023-12-04T00:00:04;98321.66;;;-7.22;94.54
56074;BME280;41950;55.840;37.442;2023-12-04T00:02:33;98457.84;;;-6.39;94.11
56074;BME280;41950;55.840;37.442;2023-12-04T00:05:02;98126.56;;;-8.40;94.00
56074;BME280;41950;55.840;37.442;2023-12-04T00:07:30;98477.16;;;-6.41;94.26
56074;BME280;41950;55.840;37.442;2023-12-04T00:09:58;98124.50;;;-8.52;94.12
56074;BME280;41950;55.840;37.442;2023-12-04T00:12:24;98095.25;;;-8.76;94.69
56074;BME280;41950;55.840;37.442;2023-12-04T00:14:52;98145.38;;;-8.55;94.56
56074;BME280;41950;55.840;37.442;2023-12-04T00:17:20;98503.00;;;-6.48;95.01
56074;BME280;41950;55.840;37.442;2023-12-04T00:19:46;98128.19;;;-8.68;94.55
56074;BME280;41950;55.840;37.442;2023-12-04T00:22:15;98161.69;;;-8.44;95.07
56074;BME280;41950;55.840;37.442;2023-12-04T00:24:41;98111.19;;;-8.75;94.68
56074;BME280;41950;55.840;37.442;2023-12-04T00:27:09;98366.66;;;-7.34;94.90
56074;BME280;41950;55.840;37.442;2023-12-04T00:29:38;98244.44;;;-8.00;94.53
56074;BME280;41950;55.840;37.442;2023-12-04T00:32:07;98298.06;;;-7.78;94.67
56074;BME280;41950;55.840;37.442;2023-12-04T00:34:37;98425.84;;;-6.96;94.12
56074;BME280;41950;55.840;37.442;2023-12-04T00:37:06;98498.09;;;-6.44;94.57
56074;BME280;41950;55.840;37.442;2023-12-04T00:39:32;98526.78;;;-6.42;94.81
56074;BME280;41950;55.840;37.442;2023-12-04T00:42:01;98187.72;;;-8.43;94.48
56074;BME280;41950;55.840;37.442;2023-12-04T00:44:27;98171.38;;;-8.54;93.97
56074;BME280;41950;55.840;37.442;2023-12-04T00:47:01;98453.44;;;-7.00;94.39
56074;BME280;41950;55.840;37.442;2023-12-04T00:49:29;98247.44;;;-8.37;94.55
56074;BME280;41950;55.840;37.442;2023-12-04T00:51:55;98260.44;;;-7.98;94.59
56074;BME280;41950;55.840;37.442;2023-12-04T00:54:23;98288.09;;;-8.00;94.90
56074;BME280;41950;55.840;37.442;2023-12-04T00:57:00;98452.72;;;-6.96;94.59
56074;BME280;41950;55.840;37.442;2023-12-04T00:59:26;98361.81;;;-7.53;94.63
56074;BME280;41950;55.840;37.442;2023-12-04T01:01:54;98241.16;;;-8.23;94.02
56074;BME280;41950;55.840;37.442;2023-12-04T01:04:23;98137.47;;;-8.91;94.17
56074;BME280;41950;55.840;37.442;2023-12-04T01:06:49;98201.72;;;-8.50;94.31
56074;BME280;41950;55.840;37.442;2023-12-04T01:09:17;98122.00;;;-9.03;94.01
56074;BME280;41950;55.840;37.442;2023-12-04T01:11:55;98250.50;;;-8.21;94.09
56074;BME280;41950;55.840;37.442;2023-12-04T01:14:24;98243.16;;;-8.40;93.88
56074;BME280;41950;55.840;37.442;2023-12-04T01:16:53;98310.63;;;-8.03;94.12
56074;BME280;41950;55.840;37.442;2023-12-04T01:19:21;98241.75;;;-8.80;94.14
56074;BME280;41950;55.840;37.442;2023-12-04T01:21:47;98556.31;;;-6.65;94.83
56074;BME280;41950;55.840;37.442;2023-12-04T01:24:16;98412.94;;;-7.57;94.88
56074;BME280;41950;55.840;37.442;2023-12-04T01:26:47;98296.69;;;-8.44;94.52
56074;BME280;41950;55.840;37.442;2023-12-04T01:29:13;98252.06;;;-8.74;94.25
56074;BME280;41950;55.840;37.442;2023-12-04T01:31:48;98212.97;;;-9.12;93.73
56074;BME280;41950;55.840;37.442;2023-12-04T01:34:14;98429.44;;;-7.65;94.00
56074;BME280;41950;55.840;37.442;2023-12-04T01:36:40;98266.88;;;-8.57;94.29
56074;BME280;41950;55.840;37.442;2023-12-04T01:39:07;98546.19;;;-6.92;94.07
56074;BME280;41950;55.840;37.442;2023-12-04T01:41:33;98334.09;;;-8.28;94.22
56074;BME280;41950;55.840;37.442;2023-12-04T01:44:02;98302.97;;;-8.55;94.18
56074;BME280;41950;55.840;37.442;2023-12-04T01:46:28;98586.94;;;-6.81;94.27
56074;BME280;41950;55.840;37.442;2023-12-04T01:48:58;98231.78;;;-9.02;94.44
56074;BME280;41950;55.840;37.442;2023-12-04T01:51:29;98331.97;;;-8.43;94.49
56074;BME280;41950;55.840;37.442;2023-12-04T01:53:58;98560.00;;;-7.06;94.89
56074;BME280;41950;55.840;37.442;2023-12-04T01:56:27;98253.84;;;-8.93;95.06
56074;BME280;41950;55.840;37.442;2023-12-04T01:58:53;98580.94;;;-7.08;95.15
56074;BME280;41950;55.840;37.442;2023-12-04T02:01:22;98190.03;;;-9.43;94.87
56074;BME280;41950;55.840;37.442;2023-12-04T02:03:51;98383.78;;;-8.22;94.66
56074;BME280;41950;55.840;37.442;2023-12-04T02:06:19;98531.75;;;-7.21;94.61
56074;BME280;41950;55.840;37.442;2023-12-04T02:08:46;98209.59;;;-9.12;94.39
56074;BME280;41950;55.840;37.442;2023-12-04T02:11:14;98141.41;;;-9.68;94.16
56074;BME280;41950;55.840;37.442;2023-12-04T02:13:44;98387.34;;;-8.17;94.23
56074;BME280;41950;55.840;37.442;2023-12-04T02:16:18;98568.16;;;-7.13;93.69
56074;BME280;41950;55.840;37.442;2023-12-04T02:18:50;98256.75;;;-9.05;93.71
56074;BME280;41950;55.840;37.442;2023-12-04T02:21:21;98573.88;;;-6.93;94.41
56074;BME280;41950;55.840;37.442;2023-12-04T02:23:55;98222.22;;;-9.11;92.84
56074;BME280;41950;55.840;37.442;2023-12-04T02:26:31;98364.31;;;-8.28;92.50
56074;BME280;41950;55.840;37.442;2023-12-04T02:29:00;98452.38;;;-7.82;93.27
56074;BME280;41950;55.840;37.442;2023-12-04T02:31:27;98356.44;;;-8.38;93.38
56074;BME280;41950;55.840;37.442;2023-12-04T02:34:01;98440.78;;;-8.00;92.08
56074;BME280;41950;55.840;37.442;2023-12-04T02:36:37;98295.78;;;-8.92;92.50
56074;BME280;41950;55.840;37.442;2023-12-04T02:39:04;98356.78;;;-8.52;92.40
56074;BME280;41950;55.840;37.442;2023-12-04T02:41:30;98220.28;;;-9.40;92.07
56074;BME280;41950;55.840;37.442;2023-12-04T02:44:09;98187.09;;;-9.55;90.56
56074;BME280;41950;55.840;37.442;2023-12-04T02:46:35;98458.81;;;-7.90;92.61
56074;BME280;41950;55.840;37.442;2023-12-04T02:49:08;98346.00;;;-8.71;91.37
56074;BME280;41950;55.840;37.442;2023-12-04T02:51:40;98481.72;;;-8.06;91.88
56074;BME280;41950;55.840;37.442;2023-12-04T02:54:09;98302.09;;;-9.03;92.22
56074;BME280;41950;55.840;37.442;2023-12-04T02:56:35;98291.34;;;-9.22;91.46
56074;BME280;41950;55.840;37.442;2023-12-04T02:59:03;98229.28;;;-9.68;92.90
56074;BME280;41950;55.840;37.442;2023-12-04T03:01:33;98383.19;;;-8.63;92.46
56074;BME280;41950;55.840;37.442;2023-12-04T03:04:09;98591.66;;;-7.38;93.41
56074;BME280;41950;55.840;37.442;2023-12-04T03:06:38;98232.09;;;-9.60;92.63
56074;BME280;41950;55.840;37.442;2023-12-04T03:09:06;98270.13;;;-9.51;92.84
56074;BME280;41950;55.840;37.442;2023-12-04T03:11:33;98650.72;;;-7.31;93.39
56074;BME280;41950;55.840;37.442;2023-12-04T03:14:00;98421.16;;;-8.57;93.25
56074;BME280;41950;55.840;37.442;2023-12-04T03:16:34;98529.66;;;-8.03;93.05
56074;BME280;41950;55.840;37.442;2023-12-04T03:19:03;98342.84;;;-9.11;92.73
56074;BME280;41950;55.840;37.442;2023-12-04T03:21:32;98273.91;;;-9.83;91.46
56074;BME280;41950;55.840;37.442;2023-12-04T03:24:04;98382.50;;;-9.03;91.36
56074;BME280;41950;55.840;37.442;2023-12-04T03:26:32;98320.66;;;-9.43;92.62
56074;BME280;41950;55.840;37.442;2023-12-04T03:29:01;98720.19;;;-7.16;91.37
56074;BME280;41950;55.840;37.442;2023-12-04T03:31:29;98335.13;;;-9.58;91.62
56074;BME280;41950;55.840;37.442;2023-12-04T03:34:13;98528.75;;;-8.50;93.15
56074;BME280;41950;55.840;37.442;2023-12-04T03:36:46;98325.06;;;-9.79;92.91
56074;BME280;41950;55.840;37.442;2023-12-04T03:39:15;98663.84;;;-7.62;93.31
56074;BME280;41950;55.840;37.442;2023-12-04T03:41:41;98328.38;;;-9.59;92.79
56074;BME280;41950;55.840;37.442;2023-12-04T03:44:25;98749.31;;;-7.24;92.79
56074;BME280;41950;55.840;37.442;2023-12-04T03:46:53;98524.44;;;-8.52;93.29
56074;BME280;41950;55.840;37.442;2023-12-04T03:49:21;98360.09;;;-9.41;92.98
56074;BME280;41950;55.840;37.442;2023-12-04T03:51:49;98748.72;;;-7.17;93.52
56074;BME280;41950;55.840;37.442;2023-12-04T03:54:15;98388.63;;;-9.39;92.62
56074;BME280;41950;55.840;37.442;2023-12-04T03:56:44;98696.47;;;-7.65;92.63
56074;BME280;41950;55.840;37.442;2023-12-04T03:59:10;98529.63;;;-8.70;92.69
56074;BME280;41950;55.840;37.442;2023-12-04T04:01:36;98467.34;;;-9.19;92.35
56074;BME280;41950;55.840;37.442;2023-12-04T04:04:04;98460.84;;;-9.14;92.43
56074;BME280;41950;55.840;37.442;2023-12-04T04:06:48;98803.03;;;-7.25;91.84
56074;BME280;41950;55.840;37.442;2023-12-04T04:09:31;98492.22;;;-9.04;91.81
56074;BME280;41950;55.840;37.442;2023-12-04T04:12:02;98470.88;;;-9.14;92.42
56074;BME280;41950;55.840;37.442;2023-12-04T04:14:31;98566.28;;;-8.54;92.13
56074;BME280;41950;55.840;37.442;2023-12-04T04:16:59;98704.91;;;-7.65;91.09
56074;BME280;41950;55.840;37.442;2023-12-04T04:19:25;98643.31;;;-8.37;89.98
56074;BME280;41950;55.840;37.442;2023-12-04T04:21:51;98748.53;;;-7.66;90.77
56074;BME280;41950;55.840;37.442;2023-12-04T04:24:16;98490.13;;;-9.14;89.66
56074;BME280;41950;55.840;37.442;2023-12-04T04:26:44;98451.06;;;-9.48;90.81
56074;BME280;41950;55.840;37.442;2023-12-04T04:29:13;98504.59;;;-9.29;91.34
56074;BME280;41950;55.840;37.442;2023-12-04T04:31:41;98570.34;;;-8.58;91.44
56074;BME280;41950;55.840;37.442;2023-12-04T04:34:12;98674.34;;;-8.16;91.54
56074;BME280;41950;55.840;37.442;2023-12-04T04:36:38;98587.88;;;-8.80;91.68
56074;BME280;41950;55.840;37.442;2023-12-04T04:39:07;98846.31;;;-7.14;92.33
56074;BME280;41950;55.840;37.442;2023-12-04T04:41:44;98866.19;;;-7.22;92.70
56074;BME280;41950;55.840;37.442;2023-12-04T04:44:18;98603.09;;;-8.77;92.85
56074;BME280;41950;55.840;37.442;2023-12-04T04:47:04;98851.38;;;-7.35;92.71
56074;BME280;41950;55.840;37.442;2023-12-04T04:49:33;98514.78;;;-9.26;92.38
56074;BME280;41950;55.840;37.442;2023-12-04T04:52:02;98426.34;;;-9.79;91.90
56074;BME280;41950;55.840;37.442;2023-12-04T04:54:35;98785.47;;;-7.66;92.19
56074;BME280;41950;55.840;37.442;2023-12-04T04:57:10;98778.25;;;-7.57;92.13
56074;BME280;41950;55.840;37.442;2023-12-04T04:59:52;98664.13;;;-8.41;92.58
56074;BME280;41950;55.840;37.442;2023-12-04T05:02:26;98891.97;;;-7.08;92.62
56074;BME280;41950;55.840;37.442;2023-12-04T05:04:52;98607.41;;;-8.75;92.57
56074;BME280;41950;55.840;37.442;2023-12-04T05:07:28;98613.72;;;-8.63;92.39
56074;BME280;41950;55.840;37.442;2023-12-04T05:09:54;98890.59;;;-7.00;93.18
56074;BME280;41950;55.840;37.442;2023-12-04T05:12:29;98536.91;;;-9.18;92.00
56074;BME280;41950;55.840;37.442;2023-12-04T05:14:55;98602.59;;;-8.89;91.59
56074;BME280;41950;55.840;37.442;2023-12-04T05:17:36;98594.56;;;-9.01;91.34
56074;BME280;41950;55.840;37.442;2023-12-04T05:20:08;98907.78;;;-7.12;92.79
56074;BME280;41950;55.840;37.442;2023-12-04T05:22:46;98492.13;;;-9.67;92.49
56074;BME280;41950;55.840;37.442;2023-12-04T05:25:16;98521.84;;;-9.37;92.68
56074;BME280;41950;55.840;37.442;2023-12-04T05:27:42;98535.06;;;-9.41;91.08
56074;BME280;41950;55.840;37.442;2023-12-04T05:30:13;98609.56;;;-9.03;91.37
56074;BME280;41950;55.840;37.442;2023-12-04T05:32:44;98590.66;;;-9.14;92.81
56074;BME280;41950;55.840;37.442;2023-12-04T05:35:15;98467.28;;;-9.99;92.95
56074;BME280;41950;55.840;37.442;2023-12-04T05:37:44;98521.81;;;-9.58;92.82
56074;BME280;41950;55.840;37.442;2023-12-04T05:40:17;98779.53;;;-8.28;91.62
56074;BME280;41950;55.840;37.442;2023-12-04T05:43:03;98767.69;;;-8.30;90.93
56074;BME280;41950;55.840;37.442;2023-12-04T05:45:36;98559.38;;;-9.40;91.24
56074;BME280;41950;55.840;37.442;2023-12-04T05:48:02;98655.94;;;-8.96;92.27
56074;BME280;41950;55.840;37.442;2023-12-04T05:50:34;98694.41;;;-8.78;92.42
56074;BME280;41950;55.840;37.442;2023-12-04T05:53:00;98712.25;;;-8.53;93.10
56074;BME280;41950;55.840;37.442;2023-12-04T05:55:28;98930.13;;;-7.20;92.62
56074;BME280;41950;55.840;37.442;2023-12-04T05:58:06;98707.84;;;-8.58;91.75
56074;BME280;41950;55.840;37.442;2023-12-04T06:00:44;98713.28;;;-8.68;92.16
56074;BME280;41950;55.840;37.442;2023-12-04T06:03:12;98760.72;;;-8.37;92.72
56074;BME280;41950;55.840;37.442;2023-12-04T06:05:44;98959.06;;;-7.11;92.96
56074;BME280;41950;55.840;37.442;2023-12-04T06:08:12;98618.72;;;-9.24;92.12
56074;BME280;41950;55.840;37.442;2023-12-04T06:10:38;98808.06;;;-8.08;93.10
56074;BME280;41950;55.840;37.442;2023-12-04T06:13:08;98667.97;;;-8.89;93.28
56074;BME280;41950;55.840;37.442;2023-12-04T06:15:34;98715.19;;;-8.63;93.27
56074;BME280;41950;55.840;37.442;2023-12-04T06:18:03;98740.34;;;-8.44;92.08
56074;BME280;41950;55.840;37.442;2023-12-04T06:20:32;98721.94;;;-8.43;91.52
56074;BME280;41950;55.840;37.442;2023-12-04T06:23:01;98855.50;;;-7.98;92.00
56074;BME280;41950;55.840;37.442;2023-12-04T06:25:30;98602.16;;;-9.39;91.47
56074;BME280;41950;55.840;37.442;2023-12-04T06:28:08;98741.63;;;-8.73;89.86
56074;BME280;41950;55.840;37.442;2023-12-04T06:30:34;98957.56;;;-7.27;88.41
56074;BME280;41950;55.840;37.442;2023-12-04T06:33:03;98734.94;;;-8.72;91.10
56074;BME280;41950;55.840;37.442;2023-12-04T06:35:28;98982.84;;;-7.26;89.43
56074;BME280;41950;55.840;37.442;2023-12-04T06:37:55;98647.81;;;-9.29;90.79
56074;BME280;41950;55.840;37.442;2023-12-04T06:40:21;98809.75;;;-8.28;91.77
56074;BME280;41950;55.840;37.442;2023-12-04T06:42:50;98786.63;;;-8.40;92.24
56074;BME280;41950;55.840;37.442;2023-12-04T06:45:21;98650.09;;;-9.15;91.87
56074;BME280;41950;55.840;37.442;2023-12-04T06:47:50;98790.66;;;-8.23;91.37
56074;BME280;41950;55.840;37.442;2023-12-04T06:50:18;98650.03;;;-9.16;91.83
56074;BME280;41950;55.840;37.442;2023-12-04T06:52:47;98787.28;;;-8.23;90.45
56074;BME280;41950;55.840;37.442;2023-12-04T06:55:13;98887.28;;;-7.81;91.39
56074;BME280;41950;55.840;37.442;2023-12-04T06:57:40;98715.53;;;-8.94;89.85
56074;BME280;41950;55.840;37.442;2023-12-04T07:00:07;98745.31;;;-8.64;90.84
56074;BME280;41950;55.840;37.442;2023-12-04T07:02:33;98661.84;;;-9.33;89.46
56074;BME280;41950;55.840;37.442;2023-12-04T07:05:02;98929.97;;;-7.84;89.96
56074;BME280;41950;55.840;37.442;2023-12-04T07:07:29;98680.47;;;-9.10;89.71
56074;BME280;41950;55.840;37.442;2023-12-04T07:09:54;98738.56;;;-8.85;89.69
56074;BME280;41950;55.840;37.442;2023-12-04T07:12:20;98652.16;;;-9.25;89.40
56074;BME280;41950;55.840;37.442;2023-12-04T07:14:47;98905.72;;;-7.82;87.65
56074;BME280;41950;55.840;37.442;2023-12-04T07:17:13;98653.25;;;-9.38;88.34
56074;BME280;41950;55.840;37.442;2023-12-04T07:19:41;98745.31;;;-8.84;89.73
56074;BME280;41950;55.840;37.442;2023-12-04T07:22:07;98906.50;;;-7.83;88.93
56074;BME280;41950;55.840;37.442;2023-12-04T07:24:32;98766.41;;;-8.61;87.31
56074;BME280;41950;55.840;37.442;2023-12-04T07:26:59;99050.47;;;-6.96;89.56
56074;BME280;41950;55.840;37.442;2023-12-04T07:29:25;98935.41;;;-7.74;90.26
56074;BME280;41950;55.840;37.442;2023-12-04T07:31:54;98791.69;;;-8.58;89.70
56074;BME280;41950;55.840;37.442;2023-12-04T07:34:20;98871.69;;;-7.93;89.71
56074;BME280;41950;55.840;37.442;2023-12-04T07:36:45;98733.72;;;-8.80;88.69
56074;BME280;41950;55.840;37.442;2023-12-04T07:39:11;98939.91;;;-7.67;89.65
56074;BME280;41950;55.840;37.442;2023-12-04T07:41:37;98820.13;;;-8.41;88.84
56074;BME280;41950;55.840;37.442;2023-12-04T07:44:03;98828.91;;;-8.51;86.04
56074;BME280;41950;55.840;37.442;2023-12-04T07:46:29;98774.75;;;-9.00;86.38
56074;BME280;41950;55.840;37.442;2023-12-04T07:48:55;99075.13;;;-7.10;89.37
56074;BME280;41950;55.840;37.442;2023-12-04T07:51:21;99030.88;;;-7.42;89.37
56074;BME280;41950;55.840;37.442;2023-12-04T07:53:47;99018.69;;;-7.52;88.54
56074;BME280;41950;55.840;37.442;2023-12-04T07:56:13;99095.81;;;-6.98;88.43
56074;BME280;41950;55.840;37.442;2023-12-04T07:58:39;98885.41;;;-8.44;87.26
56074;BME280;41950;55.840;37.442;2023-12-04T08:01:05;98757.63;;;-9.08;88.34
56074;BME280;41950;55.840;37.442;2023-12-04T08:03:31;99005.09;;;-7.56;88.09
56074;BME280;41950;55.840;37.442;2023-12-04T08:05:57;99100.34;;;-7.10;87.13
56074;BME280;41950;55.840;37.442;2023-12-04T08:08:24;98672.63;;;-9.90;84.67
56074;BME280;41950;55.840;37.442;2023-12-04T08:10:50;98994.09;;;-7.95;87.27
56074;BME280;41950;55.840;37.442;2023-12-04T08:13:16;99117.13;;;-7.10;87.69
56074;BME280;41950;55.840;37.442;2023-12-04T08:15:42;99035.72;;;-7.47;88.57
56074;BME280;41950;55.840;37.442;2023-12-04T08:18:08;99091.63;;;-6.97;88.77
56074;BME280;41950;55.840;37.442;2023-12-04T08:20:36;98759.19;;;-8.92;86.35
56074;BME280;41950;55.840;37.442;2023-12-04T08:23:02;99117.75;;;-6.95;87.53
56074;BME280;41950;55.840;37.442;2023-12-04T08:25:28;98763.59;;;-9.25;87.81
56074;BME280;41950;55.840;37.442;2023-12-04T08:27:54;98814.75;;;-8.68;88.10
56074;BME280;41950;55.840;37.442;2023-12-04T08:30:20;99154.53;;;-6.81;88.30
56074;BME280;41950;55.840;37.442;2023-12-04T08:32:46;98756.63;;;-8.93;88.19
56074;BME280;41950;55.840;37.442;2023-12-04T08:35:12;98849.22;;;-8.27;88.01
56074;BME280;41950;55.840;37.442;2023-12-04T08:37:38;98869.66;;;-8.00;86.54
56074;BME280;41950;55.840;37.442;2023-12-04T08:40:06;98868.63;;;-8.05;86.32
56074;BME280;41950;55.840;37.442;2023-12-04T08:42:33;98999.44;;;-7.50;85.73
56074;BME280;41950;55.840;37.442;2023-12-04T08:44:59;98766.97;;;-8.68;86.75
56074;BME280;41950;55.840;37.442;2023-12-04T08:47:25;98759.28;;;-8.71;86.80
56074;BME280;41950;55.840;37.442;2023-12-04T08:49:51;98958.94;;;-7.55;85.93
56074;BME280;41950;55.840;37.442;2023-12-04T08:52:17;99119.06;;;-6.44;86.34
56074;BME280;41950;55.840;37.442;2023-12-04T08:54:42;99068.59;;;-6.44;85.94
56074;BME280;41950;55.840;37.442;2023-12-04T08:57:08;99034.16;;;-6.63;84.84
56074;BME280;41950;55.840;37.442;2023-12-04T08:59:37;98950.47;;;-7.15;85.87
56074;BME280;41950;55.840;37.442;2023-12-04T09:02:03;99151.91;;;-6.02;85.85
56074;BME280;41950;55.840;37.442;2023-12-04T09:04:32;99158.00;;;-5.97;84.95
56074;BME280;41950;55.840;37.442;2023-12-04T09:06:58;99011.16;;;-6.91;85.17
56074;BME280;41950;55.840;37.442;2023-12-04T09:09:24;98783.91;;;-8.45;84.94
56074;BME280;41950;55.840;37.442;2023-12-04T09:11:50;98810.84;;;-8.42;86.38
56074;BME280;41950;55.840;37.442;2023-12-04T09:14:16;98955.91;;;-7.46;86.35
56074;BME280;41950;55.840;37.442;2023-12-04T09:16:42;99006.50;;;-7.22;87.02
56074;BME280;41950;55.840;37.442;2023-12-04T09:19:08;99169.09;;;-6.14;86.60
56074;BME280;41950;55.840;37.442;2023-12-04T09:21:35;98858.41;;;-7.89;86.16
56074;BME280;41950;55.840;37.442;2023-12-04T09:24:01;98870.75;;;-8.14;82.52
56074;BME280;41950;55.840;37.442;2023-12-04T09:26:27;98932.00;;;-7.94;85.15
56074;BME280;41950;55.840;37.442;2023-12-04T09:28:53;98873.28;;;-8.33;84.47
56074;BME280;41950;55.840;37.442;2023-12-04T09:31:22;98860.22;;;-8.05;85.82
56074;BME280;41950;55.840;37.442;2023-12-04T09:33:50;98831.78;;;-8.22;84.76
56074;BME280;41950;55.840;37.442;2023-12-04T09:36:16;99156.91;;;-6.25;85.13
56074;BME280;41950;55.840;37.442;2023-12-04T09:38:43;98971.56;;;-7.34;84.78
56074;BME280;41950;55.840;37.442;2023-12-04T09:41:10;99076.38;;;-6.59;84.26
56074;BME280;41950;55.840;37.442;2023-12-04T09:43:37;98851.59;;;-8.11;85.05
56074;BME280;41950;55.840;37.442;2023-12-04T09:46:04;99151.84;;;-6.25;85.04
56074;BME280;41950;55.840;37.442;2023-12-04T09:48:31;99060.13;;;-6.86;85.32
56074;BME280;41950;55.840;37.442;2023-12-04T09:50:57;98855.84;;;-8.10;84.11
56074;BME280;41950;55.840;37.442;2023-12-04T09:53:24;98907.25;;;-7.85;85.73
56074;BME280;41950;55.840;37.442;2023-12-04T09:55:53;99007.19;;;-7.26;86.11
56074;BME280;41950;55.840;37.442;2023-12-04T09:58:25;99201.00;;;-5.96;84.99
56074;BME280;41950;55.840;37.442;2023-12-04T10:00:53;99128.06;;;-6.50;85.66
56074;BME280;41950;55.840;37.442;2023-12-04T10:03:23;99107.06;;;-6.49;83.71
56074;BME280;41950;55.840;37.442;2023-12-04T10:05:49;99078.97;;;-6.78;84.41
56074;BME280;41950;55.840;37.442;2023-12-04T10:08:15;99147.72;;;-6.43;85.22
56074;BME280;41950;55.840;37.442;2023-12-04T10:10:42;98891.34;;;-7.84;84.22
56074;BME280;41950;55.840;37.442;2023-12-04T10:13:08;99058.94;;;-6.94;84.27
56074;BME280;41950;55.840;37.442;2023-12-04T10:15:46;98905.97;;;-7.95;81.66
56074;BME280;41950;55.840;37.442;2023-12-04T10:18:27;98900.34;;;-8.08;84.92
56074;BME280;41950;55.840;37.442;2023-12-04T10:20:56;99104.16;;;-6.79;85.23
56074;BME280;41950;55.840;37.442;2023-12-04T10:23:23;98926.34;;;-7.90;84.60
56074;BME280;41950;55.840;37.442;2023-12-04T10:26:03;99039.59;;;-7.14;84.77
56074;BME280;41950;55.840;37.442;2023-12-04T10:28:32;99145.81;;;-6.68;84.39
56074;BME280;41950;55.840;37.442;2023-12-04T10:30:57;98901.22;;;-7.89;84.74
56074;BME280;41950;55.840;37.442;2023-12-04T10:33:25;99118.19;;;-6.65;84.10
56074;BME280;41950;55.840;37.442;2023-12-04T10:35:54;99147.84;;;-6.60;84.71
56074;BME280;41950;55.840;37.442;2023-12-04T10:38:22;99035.91;;;-7.42;84.08
56074;BME280;41950;55.840;37.442;2023-12-04T10:40:49;98927.31;;;-8.25;84.63
56074;BME280;41950;55.840;37.442;2023-12-04T10:43:19;99243.94;;;-6.16;84.77
56074;BME280;41950;55.840;37.442;2023-12-04T10:45:47;99269.56;;;-5.86;84.98
56074;BME280;41950;55.840;37.442;2023-12-04T10:48:15;99153.56;;;-6.44;84.89
56074;BME280;41950;55.840;37.442;2023-12-04T10:50:43;99132.31;;;-6.49;84.71
56074;BME280;41950;55.840;37.442;2023-12-04T10:53:12;99272.28;;;-5.61;84.65
56074;BME280;41950;55.840;37.442;2023-12-04T10:55:39;99276.66;;;-5.57;84.66
56074;BME280;41950;55.840;37.442;2023-12-04T10:58:10;99131.59;;;-6.66;84.09
56074;BME280;41950;55.840;37.442;2023-12-04T11:00:49;99217.75;;;-6.18;84.60
56074;BME280;41950;55.840;37.442;2023-12-04T11:03:20;99163.81;;;-6.61;84.37
56074;BME280;41950;55.840;37.442;2023-12-04T11:05:53;99155.28;;;-6.83;83.59
56074;BME280;41950;55.840;37.442;2023-12-04T11:08:20;98910.84;;;-8.38;85.51
56074;BME280;41950;55.840;37.442;2023-12-04T11:11:01;99073.66;;;-7.63;86.09
56074;BME280;41950;55.840;37.442;2023-12-04T11:13:31;99149.47;;;-7.20;85.75
56074;BME280;41950;55.840;37.442;2023-12-04T11:16:18;99250.75;;;-6.73;82.87
56074;BME280;41950;55.840;37.442;2023-12-04T11:19:00;99073.53;;;-7.66;85.62
56074;BME280;41950;55.840;37.442;2023-12-04T11:21:29;99255.59;;;-6.59;86.43
56074;BME280;41950;55.840;37.442;2023-12-04T11:23:57;99242.50;;;-6.69;85.83
56074;BME280;41950;55.840;37.442;2023-12-04T11:26:24;99323.44;;;-6.28;86.91
56074;BME280;41950;55.840;37.442;2023-12-04T11:28:51;99151.34;;;-7.35;86.00
56074;BME280;41950;55.840;37.442;2023-12-04T11:31:18;99181.66;;;-7.14;87.01
56074;BME280;41950;55.840;37.442;2023-12-04T11:33:44;99160.38;;;-7.21;86.40
56074;BME280;41950;55.840;37.442;2023-12-04T11:36:12;99216.94;;;-6.96;85.66
56074;BME280;41950;55.840;37.442;2023-12-04T11:38:43;99089.50;;;-7.65;86.18
56074;BME280;41950;55.840;37.442;2023-12-04T11:41:19;99268.75;;;-6.66;85.93
56074;BME280;41950;55.840;37.442;2023-12-04T11:43:46;98975.19;;;-8.43;86.12
56074;BME280;41950;55.840;37.442;2023-12-04T11:46:25;99023.53;;;-8.31;85.09
56074;BME280;41950;55.840;37.442;2023-12-04T11:48:57;99140.16;;;-7.77;85.18
56074;BME280;41950;55.840;37.442;2023-12-04T11:54:10;99323.44;;;-6.47;86.02
56074;BME280;41950;55.840;37.442;2023-12-04T11:56:36;99339.03;;;-6.36;85.95
56074;BME280;41950;55.840;37.442;2023-12-04T11:59:06;99190.94;;;-7.32;86.64
56074;BME280;41950;55.840;37.442;2023-12-04T12:01:38;99171.25;;;-7.59;87.31
56074;BME280;41950;55.840;37.442;2023-12-04T12:04:07;98996.91;;;-8.63;85.53
56074;BME280;41950;55.840;37.442;2023-12-04T12:06:33;99074.94;;;-8.26;86.29
56074;BME280;41950;55.840;37.442;2023-12-04T12:08:59;99163.56;;;-7.80;86.87
56074;BME280;41950;55.840;37.442;2023-12-04T12:11:25;99119.47;;;-8.07;87.42
56074;BME280;41950;55.840;37.442;2023-12-04T12:13:55;99061.00;;;-8.55;86.90
56074;BME280;41950;55.840;37.442;2023-12-04T12:16:23;99077.03;;;-8.70;84.94
56074;BME280;41950;55.840;37.442;2023-12-04T12:18:50;98981.69;;;-9.18;86.52
56074;BME280;41950;55.840;37.442;2023-12-04T12:21:16;99159.97;;;-8.20;86.62
56074;BME280;41950;55.840;37.442;2023-12-04T12:23:43;99229.00;;;-7.81;87.08
56074;BME280;41950;55.840;37.442;2023-12-04T12:26:09;99027.28;;;-8.94;87.21
56074;BME280;41950;55.840;37.442;2023-12-04T12:28:37;99163.00;;;-8.10;88.39
56074;BME280;41950;55.840;37.442;2023-12-04T12:31:03;99259.88;;;-7.50;87.45
56074;BME280;41950;55.840;37.442;2023-12-04T12:33:29;99330.75;;;-7.26;87.82
56074;BME280;41950;55.840;37.442;2023-12-04T12:35:57;99128.84;;;-8.40;86.13
56074;BME280;41950;55.840;37.442;2023-12-04T12:38:25;99019.03;;;-9.08;86.95
56074;BME280;41950;55.840;37.442;2023-12-04T12:40:51;99376.25;;;-6.87;86.25
56074;BME280;41950;55.840;37.442;2023-12-04T12:43:20;99033.31;;;-8.90;86.91
56074;BME280;41950;55.840;37.442;2023-12-04T12:45:49;99269.88;;;-7.33;87.70
56074;BME280;41950;55.840;37.442;2023-12-04T12:48:16;99248.47;;;-7.41;87.41
56074;BME280;41950;55.840;37.442;2023-12-04T12:50:43;99328.06;;;-6.93;87.31
56074;BME280;41950;55.840;37.442;2023-12-04T12:53:12;99407.19;;;-6.56;87.69
56074;BME280;41950;55.840;37.442;2023-12-04T12:55:41;99204.94;;;-7.74;87.83
56074;BME280;41950;55.840;37.442;2023-12-04T12:58:10;99077.50;;;-8.44;87.38
56074;BME280;41950;55.840;37.442;2023-12-04T13:00:39;99061.81;;;-8.56;87.23